createdAt,value
2023-02-12T00:02:26.629Z,100587.81
2023-02-12T00:04:53.022Z,100593.78
2023-02-12T00:07:19.797Z,100591.53
2023-02-12T00:09:46.490Z,100588.84
2023-02-12T00:12:12.931Z,100590.88
2023-02-12T00:14:39.450Z,100594.84
2023-02-12T00:17:05.872Z,100598.94
2023-02-12T00:19:32.485Z,100599.38
2023-02-12T00:21:59.011Z,100606.63
2023-02-12T00:24:27.006Z,100609.31
2023-02-12T00:26:53.574Z,100593.16
2023-02-12T00:29:19.985Z,100597.28
2023-02-12T00:31:46.603Z,100609.50
2023-02-12T00:34:15.370Z,100603.31
2023-02-12T00:36:41.888Z,100612.41
2023-02-12T00:39:10.041Z,100609.28
2023-02-12T00:41:36.573Z,100615.28
2023-02-12T00:44:03.064Z,100611.38
2023-02-12T00:46:29.626Z,100618.78
2023-02-12T00:48:56.145Z,100611.34
2023-02-12T00:51:22.682Z,100612.16
2023-02-12T00:53:49.172Z,100613.38
2023-02-12T00:56:23.490Z,100622.91
2023-02-12T00:58:50.271Z,100622.91
2023-02-12T01:01:17.273Z,100616.72
2023-02-12T01:03:44.079Z,100609.25
2023-02-12T01:06:53.955Z,100607.19
2023-02-12T01:09:20.523Z,100615.91
2023-02-12T01:11:47.005Z,100604.94
2023-02-12T01:14:13.530Z,100610.91
2023-02-12T01:16:40.495Z,100610.09
2023-02-12T01:19:07.025Z,100609.25
2023-02-12T01:21:35.341Z,100609.88
2023-02-12T01:24:02.658Z,100608.44
2023-02-12T01:26:31.193Z,100616.28
2023-02-12T01:29:02.126Z,100616.28
2023-02-12T01:55:03.620Z,100605.53
2023-02-12T01:57:49.589Z,100602.03
2023-02-12T02:01:07.338Z,100610.91
2023-02-12T02:03:43.268Z,100603.88
2023-02-12T02:06:42.602Z,100604.72
2023-02-12T03:00:26.193Z,100577.00
2023-02-12T03:02:59.337Z,100578.66
2023-02-12T03:05:35.237Z,100577.59
2023-02-12T03:08:16.682Z,100578.66
2023-02-12T03:10:49.843Z,100587.34
2023-02-12T03:13:44.859Z,100581.97
2023-02-12T03:16:25.762Z,100580.72
2023-02-12T03:19:14.796Z,100585.66
2023-02-12T03:21:51.902Z,100585.66
2023-02-12T03:24:36.737Z,100587.34
2023-02-12T03:27:08.850Z,100588.34
2023-02-12T03:29:35.552Z,100590.44
2023-02-12T03:32:07.369Z,100591.47
2023-02-12T03:35:05.602Z,100587.13
2023-02-12T03:37:38.079Z,100581.13
2023-02-12T03:40:28.408Z,100583.81
2023-02-12T03:43:03.943Z,100581.13
2023-02-12T03:45:30.342Z,100583.81
2023-02-12T03:48:06.317Z,100579.47
2023-02-12T03:50:39.041Z,100591.06
2023-02-12T03:53:06.872Z,100590.84
2023-02-12T03:55:38.430Z,100605.50
2023-02-12T03:58:15.633Z,100595.16
2023-02-12T05:48:37.308Z,100619.91
2023-02-12T05:54:17.821Z,100622.41
2023-02-12T05:56:46.925Z,100627.38
2023-02-12T05:59:17.276Z,100620.72
2023-02-12T06:01:45.803Z,100621.38
2023-02-12T06:04:23.559Z,100627.78
2023-02-12T06:06:51.251Z,100627.13
2023-02-12T06:09:17.748Z,100624.47
2023-02-12T06:11:44.539Z,100619.91
2023-02-12T06:14:13.911Z,100634.00
2023-02-12T06:16:40.870Z,100623.41
2023-02-12T06:19:07.566Z,100624.47
2023-02-12T06:21:34.418Z,100623.41
2023-02-12T06:24:01.366Z,100635.19
2023-02-12T06:26:28.394Z,100624.47
2023-02-12T06:28:54.920Z,100625.50
2023-02-12T06:31:25.587Z,100633.53
2023-02-12T06:33:52.847Z,100633.13
2023-02-12T06:36:20.108Z,100633.97
2023-02-12T06:38:47.291Z,100639.34
2023-02-12T06:41:14.189Z,100652.75
2023-02-12T06:43:41.183Z,100649.25
2023-02-12T06:46:08.724Z,100654.16
2023-02-12T07:47:47.307Z,100666.91
2023-02-12T07:50:13.756Z,100666.91
2023-02-12T07:52:40.145Z,100676.41
2023-02-12T07:55:07.187Z,100664.25
2023-02-12T07:57:35.070Z,100671.06
2023-02-12T08:00:01.718Z,100670.47
2023-02-12T08:02:28.332Z,100673.16
2023-02-12T08:04:58.140Z,100659.31
2023-02-12T08:07:25.151Z,100658.91
2023-02-12T08:09:51.937Z,100663.06
2023-02-12T08:12:19.056Z,100658.50
2023-02-12T08:14:45.533Z,100661.81
2023-02-12T08:17:12.175Z,100660.97
2023-02-12T08:19:38.735Z,100660.16
2023-02-12T08:22:06.472Z,100658.94
2023-02-12T08:24:33.097Z,100667.41
2023-02-12T08:26:59.561Z,100661.63
2023-02-12T08:29:28.909Z,100656.44
2023-02-12T08:31:58.156Z,100657.91
2023-02-12T08:34:28.132Z,100658.97
2023-02-12T08:36:56.204Z,100661.84
2023-02-12T08:39:24.815Z,100666.41
2023-02-12T08:41:51.887Z,100659.59
2023-02-12T08:44:18.559Z,100659.59
2023-02-12T08:46:48.356Z,100661.84
2023-02-12T08:49:25.632Z,100662.28
2023-02-12T08:51:54.927Z,100665.59
2023-02-12T08:54:27.583Z,100663.94
2023-02-12T08:56:58.939Z,100667.84
2023-02-12T08:59:25.436Z,100682.56
2023-02-12T09:01:52.565Z,100679.44
2023-02-12T09:04:24.719Z,100676.34
2023-02-12T09:06:52.244Z,100674.88
2023-02-12T09:09:19.792Z,100672.81
2023-02-12T09:11:47.270Z,100670.97
2023-02-12T09:14:16.301Z,100675.50
2023-02-12T09:16:43.007Z,100670.16
2023-02-12T09:19:19.099Z,100673.44
2023-02-12T09:21:45.580Z,100669.69
2023-02-12T09:24:12.091Z,100663.91
2023-02-12T09:26:39.766Z,100672.97
2023-02-12T09:29:06.336Z,100664.28
2023-02-12T09:31:33.602Z,100669.19
2023-02-12T09:34:06.695Z,100665.06
2023-02-12T09:36:33.955Z,100671.84
2023-02-12T09:39:00.521Z,100662.50
2023-02-12T09:41:42.099Z,100661.63
2023-02-12T09:44:18.700Z,100666.53
2023-02-12T09:46:58.820Z,100661.75
2023-02-12T09:49:31.507Z,100663.19
2023-02-12T09:51:58.588Z,100658.16
2023-02-12T09:54:36.566Z,100663.28
2023-02-12T09:57:08.167Z,100659.72
2023-02-12T09:59:46.304Z,100669.88
2023-02-12T10:02:15.117Z,100663.03
2023-02-12T10:04:58.756Z,100665.69
2023-02-12T10:08:02.191Z,100669.84
2023-02-12T10:10:47.151Z,100672.72
2023-02-12T10:13:38.923Z,100668.28
2023-02-12T10:16:26.546Z,100659.78
2023-02-12T10:18:55.949Z,100663.06
2023-02-12T10:21:47.395Z,100665.34
2023-02-12T10:24:26.382Z,100660.78
2023-02-12T10:27:01.104Z,100658.84
2023-02-12T10:29:33.922Z,100664.84
2023-02-12T10:32:11.597Z,100666.94
2023-02-12T10:34:41.331Z,100664.84
2023-02-12T10:37:42.845Z,100661.50
2023-02-12T10:40:32.574Z,100654.84
2023-02-12T10:43:00.770Z,100657.31
2023-02-12T10:45:35.628Z,100648.97
2023-02-12T10:48:09.149Z,100655.38
2023-02-12T10:50:51.734Z,100653.31
2023-02-12T10:53:25.242Z,100647.44
2023-02-12T10:56:05.588Z,100645.09
2023-02-12T10:58:32.222Z,100641.38
2023-02-12T11:01:01.187Z,100639.44
2023-02-12T11:03:38.093Z,100645.84
2023-02-12T11:06:15.183Z,100642.44
2023-02-12T11:08:42.372Z,100641.03
2023-02-12T11:11:15.903Z,100637.88
2023-02-12T11:14:00.066Z,100633.91
2023-02-12T11:16:31.637Z,100634.88
2023-02-12T11:19:19.548Z,100629.03
2023-02-12T11:21:46.276Z,100629.72
2023-02-12T11:24:27.909Z,100628.66
2023-02-12T11:27:23.878Z,100623.25
2023-02-12T11:30:06.518Z,100625.28
2023-02-12T11:32:32.950Z,100618.16
2023-02-12T11:35:18.709Z,100623.94
2023-02-12T11:37:46.980Z,100618.91
2023-02-12T11:40:29.070Z,100618.03
2023-02-12T11:42:59.121Z,100619.81
2023-02-12T11:45:36.250Z,100613.97
2023-02-12T11:48:03.146Z,100613.13
2023-02-12T11:50:33.337Z,100614.19
2023-02-12T11:53:09.359Z,100604.13
2023-02-12T11:55:39.872Z,100605.94
2023-02-12T11:58:22.503Z,100609.47
2023-02-12T12:01:04.121Z,100608.19
2023-02-12T12:03:53.925Z,100607.66
2023-02-12T12:06:27.083Z,100608.75
2023-02-12T12:09:01.654Z,100599.28
2023-02-12T12:11:49.996Z,100606.81
2023-02-12T12:15:16.279Z,100592.00
2023-02-12T12:18:11.575Z,100594.72
2023-02-12T12:21:01.459Z,100599.81
2023-02-12T12:23:42.103Z,100594.25
2023-02-12T12:26:16.184Z,100590.59
2023-02-12T12:28:57.414Z,100590.59
2023-02-12T12:31:53.728Z,100598.59
2023-02-12T12:34:23.657Z,100597.56
2023-02-12T12:37:05.268Z,100588.81
2023-02-12T12:39:53.661Z,100591.44
2023-02-12T12:42:39.372Z,100594.59
2023-02-12T12:45:18.019Z,100581.19
2023-02-12T12:48:16.861Z,100586.13
2023-02-12T12:51:04.247Z,100571.41
2023-02-12T12:53:50.187Z,100569.13
2023-02-12T12:56:19.392Z,100576.75
2023-02-12T12:59:00.942Z,100563.91
2023-02-12T13:01:49.744Z,100566.03
2023-02-12T13:04:53.378Z,100563.72
2023-02-12T13:07:53.690Z,100553.97
2023-02-12T13:10:20.664Z,100551.72
2023-02-12T13:12:53.007Z,100548.94
2023-02-12T13:15:30.459Z,100539.88
2023-02-12T13:18:09.762Z,100536.09
2023-02-12T13:21:04.386Z,100541.16
2023-02-12T13:23:59.198Z,100535.47
2023-02-12T13:26:54.449Z,100538.97
2023-02-12T13:29:29.914Z,100533.16
2023-02-12T13:32:05.240Z,100536.75
2023-02-12T13:34:34.616Z,100535.03
2023-02-12T13:37:04.188Z,100531.81
2023-02-12T13:39:36.149Z,100526.22
2023-02-12T13:42:15.474Z,100532.16
2023-02-12T13:45:07.426Z,100534.28
2023-02-12T13:47:53.878Z,100525.00
2023-02-12T13:50:46.235Z,100523.59
2023-02-12T13:53:26.179Z,100515.03
2023-02-12T13:56:15.793Z,100516.53
2023-02-12T13:58:51.858Z,100522.28
2023-02-12T14:01:42.505Z,100518.03
2023-02-12T14:04:24.766Z,100517.53
2023-02-12T14:06:57.876Z,100517.53
2023-02-12T14:09:51.116Z,100515.28
2023-02-12T14:12:26.653Z,100516.03
2023-02-12T14:15:06.072Z,100511.59
2023-02-12T14:17:32.427Z,100509.25
2023-02-12T14:20:31.706Z,100514.13
2023-02-12T14:23:02.397Z,100510.06
2023-02-12T14:25:46.730Z,100508.91
2023-02-12T14:28:24.433Z,100502.81
2023-02-12T14:31:18.913Z,100497.88
2023-02-12T14:33:46.809Z,100499.59
2023-02-12T14:36:15.304Z,100500.78
2023-02-12T14:38:47.506Z,100498.13
2023-02-12T14:41:38.669Z,100496.84
2023-02-12T14:44:17.423Z,100495.56
2023-02-12T14:46:54.139Z,100494.16
2023-02-12T14:49:29.964Z,100493.81
2023-02-12T14:52:13.143Z,100495.38
2023-02-12T14:54:50.001Z,100490.91
2023-02-12T14:57:28.554Z,100485.13
2023-02-12T14:59:59.749Z,100485.38
2023-02-12T15:02:40.844Z,100486.88
2023-02-12T15:05:18.675Z,100486.81
2023-02-12T15:08:16.887Z,100491.03
2023-02-12T15:10:50.239Z,100480.69
2023-02-12T15:13:22.784Z,100492.53
2023-02-12T15:15:51.242Z,100484.44
2023-02-12T15:18:28.204Z,100489.50
2023-02-12T15:21:01.174Z,100487.63
2023-02-12T15:23:32.149Z,100487.03
2023-02-12T15:25:59.257Z,100476.66
2023-02-12T15:28:33.357Z,100483.72
2023-02-12T15:31:02.136Z,100473.97
2023-02-12T15:33:32.578Z,100483.16
2023-02-12T15:36:00.983Z,100477.97
2023-02-12T15:38:37.363Z,100473.03
2023-02-12T15:41:05.584Z,100474.09
2023-02-12T15:43:37.542Z,100473.16
2023-02-12T15:46:08.952Z,100466.56
2023-02-12T15:48:37.128Z,100469.16
2023-02-12T15:51:09.534Z,100473.41
2023-02-12T15:53:38.942Z,100471.72
2023-02-12T15:56:10.240Z,100465.97
2023-02-12T15:58:48.523Z,100466.91
2023-02-12T16:01:20.813Z,100465.97
2023-02-12T16:03:56.629Z,100469.00
2023-02-12T16:06:26.043Z,100467.72
2023-02-12T16:08:59.743Z,100459.91
2023-02-12T16:11:29.771Z,100467.94
2023-02-12T16:14:01.063Z,100468.03
2023-02-12T16:16:46.121Z,100455.66
2023-02-12T16:19:25.262Z,100460.31
2023-02-12T16:22:19.590Z,100462.28
2023-02-12T16:24:49.755Z,100462.16
2023-02-12T16:27:21.602Z,100472.81
2023-02-12T16:29:51.442Z,100474.78
2023-02-12T16:32:38.012Z,100473.00
2023-02-12T16:35:10.597Z,100480.34
2023-02-12T16:37:36.912Z,100484.78
2023-02-12T16:40:12.460Z,100485.09
2023-02-12T16:43:01.889Z,100481.88
2023-02-12T16:45:28.418Z,100485.25
2023-02-12T16:47:59.908Z,100487.59
2023-02-12T16:50:33.612Z,100490.97
2023-02-12T16:53:02.857Z,100488.09
2023-02-12T16:55:29.290Z,100491.50
2023-02-12T16:57:55.764Z,100493.44
2023-02-12T17:00:22.636Z,100498.91
2023-02-12T17:02:49.239Z,100496.03
2023-02-12T17:05:18.317Z,100494.47
2023-02-12T17:07:45.109Z,100503.44
2023-02-12T17:10:16.111Z,100502.44
2023-02-12T17:12:47.612Z,100512.25
2023-02-12T17:15:22.956Z,100506.31
2023-02-12T17:17:49.469Z,100513.41
2023-02-12T17:20:17.440Z,100520.28
2023-02-12T17:22:50.330Z,100525.88
2023-02-12T17:25:16.908Z,100523.88
2023-02-12T17:27:43.397Z,100518.53
2023-02-12T17:30:14.560Z,100516.47
2023-02-12T17:32:40.974Z,100526.47
2023-02-12T17:35:07.763Z,100523.59
2023-02-12T17:37:34.216Z,100522.41
2023-02-12T17:40:01.602Z,100525.75
2023-02-12T17:42:28.044Z,100520.38
2023-02-12T17:44:54.539Z,100525.81
2023-02-12T17:47:20.983Z,100529.16
2023-02-12T17:49:47.471Z,100524.63
2023-02-12T17:52:13.929Z,100530.44
2023-02-12T17:54:40.358Z,100539.97
2023-02-12T17:57:06.785Z,100532.56
2023-02-12T17:59:33.230Z,100530.50
2023-02-12T18:02:00.510Z,100539.44
2023-02-12T18:04:27.561Z,100532.22
2023-02-12T18:06:54.020Z,100532.66
2023-02-12T18:09:20.400Z,100531.38
2023-02-12T18:11:46.823Z,100536.38
2023-02-12T18:14:13.284Z,100535.13
2023-02-12T18:16:39.814Z,100540.53
2023-02-12T18:19:06.388Z,100546.75
2023-02-12T18:21:34.859Z,100539.34
2023-02-12T18:24:01.367Z,100542.66
2023-02-12T18:26:27.878Z,100542.06
2023-02-12T18:28:56.370Z,100544.09
2023-02-12T18:31:23.018Z,100541.03
2023-02-12T18:33:49.620Z,100534.22
2023-02-12T18:36:17.949Z,100531.94
2023-02-12T18:38:46.427Z,100534.41
2023-02-12T18:41:18.681Z,100536.50
2023-02-12T18:43:45.732Z,100535.25
2023-02-12T18:46:24.660Z,100530.28
2023-02-12T18:48:51.924Z,100535.06
2023-02-12T18:51:24.966Z,100532.78
2023-02-12T18:54:02.942Z,100539.63
2023-02-12T18:56:31.448Z,100541.88
2023-02-12T18:58:59.815Z,100540.66
2023-02-12T19:01:27.202Z,100537.56
2023-02-12T19:03:55.984Z,100537.97
2023-02-12T19:06:23.645Z,100530.75
2023-02-12T19:08:55.118Z,100544.19
2023-02-12T19:11:21.857Z,100538.59
2023-02-12T19:13:48.664Z,100545.22
2023-02-12T19:16:17.114Z,100556.78
2023-02-12T19:18:43.647Z,100552.25
2023-02-12T19:21:12.966Z,100548.50
2023-02-12T19:23:40.412Z,100552.44
2023-02-12T19:26:12.044Z,100543.13
2023-02-12T19:28:38.858Z,100556.78
2023-02-12T19:31:20.043Z,100561.09
2023-02-12T19:33:47.940Z,100557.16
2023-02-12T19:36:18.271Z,100557.59
2023-02-12T19:38:45.714Z,100556.31
2023-02-12T19:41:15.320Z,100557.78
2023-02-12T19:43:42.801Z,100562.72
2023-02-12T19:46:18.115Z,100560.00
2023-02-12T19:48:46.311Z,100567.22
2023-02-12T19:51:22.562Z,100570.31
2023-02-12T19:53:49.230Z,100569.50
2023-02-12T19:56:16.373Z,100568.84
2023-02-12T19:58:43.290Z,100569.69
2023-02-12T20:01:16.620Z,100572.34
2023-02-12T20:03:43.621Z,100568.84
2023-02-12T20:06:13.341Z,100575.66
2023-02-12T20:08:41.272Z,100575.22
2023-02-12T20:11:09.578Z,100572.34
2023-02-12T20:13:36.696Z,100578.09
2023-02-12T20:16:06.875Z,100574.78
2023-02-12T20:18:33.964Z,100574.78
2023-02-12T20:21:00.756Z,100573.97
2023-02-12T20:23:27.265Z,100573.16
2023-02-12T20:25:53.789Z,100584.69
2023-02-12T20:28:20.332Z,100586.31
2023-02-12T20:30:47.761Z,100579.69
2023-02-12T20:33:14.389Z,100579.28
2023-02-12T20:35:40.765Z,100581.50
2023-02-12T20:38:08.184Z,100580.91
2023-02-12T20:40:34.640Z,100583.13
2023-02-12T20:43:01.078Z,100586.22
2023-02-12T20:45:27.985Z,100581.84
2023-02-12T20:47:54.387Z,100588.63
2023-02-12T20:50:21.156Z,100583.47
2023-02-12T20:52:47.800Z,100589.03
2023-02-12T20:55:14.258Z,100588.59
2023-02-12T20:57:40.659Z,100583.44
2023-02-12T21:00:07.777Z,100581.97
2023-02-12T21:02:34.221Z,100587.50
2023-02-12T21:05:00.723Z,100588.53
2023-02-12T21:07:27.252Z,100594.75
2023-02-12T21:09:54.308Z,100592.25
2023-02-12T21:12:20.765Z,100591.00
2023-02-12T21:14:47.189Z,100584.38
2023-02-12T21:17:13.626Z,100588.09
2023-02-12T21:19:40.070Z,100586.44
2023-02-12T21:22:06.505Z,100583.31
2023-02-12T21:24:33.864Z,100583.06
2023-02-12T21:27:00.361Z,100585.94
2023-02-12T21:29:29.172Z,100584.69
2023-02-12T21:31:55.784Z,100580.53
2023-02-12T21:34:23.521Z,100583.81
2023-02-12T21:36:52.396Z,100580.47
2023-02-12T21:39:27.114Z,100569.34
2023-02-12T21:41:59.850Z,100572.22
2023-02-12T21:44:26.622Z,100581.25
2023-02-12T21:46:54.174Z,100577.75
2023-02-12T21:49:28.076Z,100581.66
2023-02-12T21:52:01.837Z,100580.00
2023-02-12T21:54:29.732Z,100578.72
2023-02-12T21:56:56.683Z,100581.59
2023-02-12T21:59:24.676Z,100574.78
2023-02-12T22:01:53.826Z,100572.28
2023-02-12T22:04:20.886Z,100572.47
2023-02-12T22:06:50.625Z,100580.50
2023-02-12T22:09:20.325Z,100577.41
2023-02-12T22:11:47.108Z,100576.94
2023-02-12T22:14:16.429Z,100578.19
2023-02-12T22:16:43.376Z,100578.13
2023-02-12T22:19:09.900Z,100578.13
2023-02-12T22:21:39.444Z,100576.47
2023-02-12T22:24:08.394Z,100575.81
2023-02-12T22:26:36.738Z,100581.75
2023-02-12T22:29:06.378Z,100574.75
2023-02-12T22:31:35.344Z,100575.56
2023-02-12T22:34:05.488Z,100579.66
2023-02-12T22:36:34.756Z,100585.41
2023-02-12T22:39:01.326Z,100584.94
2023-02-12T22:41:28.541Z,100580.81
2023-02-12T22:43:55.600Z,100578.28
2023-02-12T22:46:22.631Z,100580.34
2023-02-12T22:48:49.132Z,100577.84
2023-02-12T22:51:20.734Z,100585.06
2023-02-12T22:53:47.562Z,100585.25
2023-02-12T22:56:14.931Z,100592.63
2023-02-12T22:58:42.961Z,100583.16
2023-02-12T23:01:12.874Z,100576.34
2023-02-12T23:03:40.259Z,100581.84
2023-02-12T23:06:10.198Z,100581.41
2023-02-12T23:08:36.823Z,100578.13
2023-02-12T23:11:05.929Z,100573.75
2023-02-12T23:13:33.628Z,100581.16
2023-02-12T23:16:00.293Z,100586.69
2023-02-12T23:18:26.768Z,100587.47
2023-02-12T23:20:53.238Z,100586.63
2023-02-12T23:23:20.982Z,100591.97
2023-02-12T23:25:47.783Z,100578.97
2023-02-12T23:28:14.301Z,100581.00
2023-02-12T23:30:40.816Z,100572.97
2023-02-12T23:33:07.318Z,100573.16
2023-02-12T23:35:33.900Z,100577.69
2023-02-12T23:38:00.331Z,100587.56
2023-02-12T23:40:27.046Z,100572.06
2023-02-12T23:42:53.460Z,100584.81
2023-02-12T23:45:19.900Z,100584.34
2023-02-12T23:47:46.277Z,100579.81
2023-02-12T23:50:12.924Z,100580.22
2023-02-12T23:52:39.441Z,100580.22
2023-02-12T23:55:06.361Z,100578.91
2023-02-12T23:57:32.727Z,100572.31
2023-02-12T23:59:59.114Z,100573.13
